createdAt,value
2019-05-18T00:02:21.675Z,11.51
2019-05-18T00:04:56.086Z,11.51
2019-05-18T00:07:30.765Z,11.54
2019-05-18T00:10:03.873Z,11.54
2019-05-18T00:12:39.258Z,11.57
2019-05-18T00:15:14.118Z,11.46
2019-05-18T00:17:48.640Z,11.38
2019-05-18T00:20:23.125Z,11.38
2019-05-18T00:22:57.642Z,11.42
2019-05-18T00:25:32.085Z,11.42
2019-05-18T00:28:06.894Z,11.38
2019-05-18T00:30:41.263Z,11.44
2019-05-18T00:33:15.893Z,11.44
2019-05-18T00:35:50.303Z,11.43
2019-05-18T00:38:24.793Z,11.44
2019-05-18T00:41:00.281Z,11.46
2019-05-18T00:43:34.731Z,11.42
2019-05-18T00:46:09.255Z,11.38
2019-05-18T00:48:43.906Z,11.34
2019-05-18T00:51:16.863Z,11.33
2019-05-18T00:53:51.248Z,11.33
2019-05-18T00:56:25.697Z,11.27
2019-05-18T00:59:00.291Z,11.26
2019-05-18T01:01:34.938Z,11.18
2019-05-18T01:04:10.301Z,11.14
2019-05-18T01:06:44.872Z,11.14
2019-05-18T01:09:17.784Z,11.13
2019-05-18T01:11:51.942Z,11.09
2019-05-18T01:14:24.999Z,11.09
2019-05-18T01:16:59.340Z,11.09
2019-05-18T01:19:33.738Z,11.10
2019-05-18T01:22:06.704Z,11.13
2019-05-18T01:24:41.112Z,11.20
2019-05-18T01:27:15.733Z,11.39
2019-05-18T01:29:50.093Z,11.39
2019-05-18T01:32:24.685Z,11.50
2019-05-18T01:34:58.955Z,11.50
2019-05-18T01:37:32.972Z,11.57
2019-05-18T01:40:06.103Z,11.65
2019-05-18T01:42:40.315Z,11.72
2019-05-18T01:45:17.213Z,11.72
2019-05-18T01:47:49.811Z,11.73
2019-05-18T01:50:24.078Z,11.78
2019-05-18T01:52:58.696Z,11.81
2019-05-18T01:55:33.113Z,11.81
2019-05-18T01:58:07.419Z,11.84
2019-05-18T02:00:41.973Z,11.84
2019-05-18T02:03:16.305Z,11.85
2019-05-18T02:05:50.740Z,11.83
2019-05-18T02:08:24.108Z,11.83
2019-05-18T02:10:58.300Z,11.82
2019-05-18T02:13:33.114Z,11.81
2019-05-18T02:16:08.105Z,11.86
2019-05-18T02:18:42.731Z,11.86
2019-05-18T02:21:17.073Z,11.83
2019-05-18T02:23:51.727Z,11.83
2019-05-18T02:26:26.109Z,11.81
2019-05-18T02:29:00.919Z,11.82
2019-05-18T02:31:35.256Z,11.82
2019-05-18T02:34:09.885Z,11.75
2019-05-18T02:36:42.688Z,11.74
2019-05-18T02:39:16.876Z,11.76
2019-05-18T02:41:49.861Z,11.76
2019-05-18T02:44:24.130Z,11.76
2019-05-18T02:46:58.649Z,11.78
2019-05-18T02:49:33.278Z,11.78
2019-05-18T02:52:07.923Z,11.77
2019-05-18T02:54:40.987Z,11.75
2019-05-18T02:57:13.841Z,11.79
2019-05-18T02:59:46.783Z,11.74
2019-05-18T03:02:21.132Z,11.74
2019-05-18T03:04:55.753Z,11.79
2019-05-18T03:07:28.682Z,11.79
2019-05-18T03:10:03.041Z,11.81
2019-05-18T03:12:37.668Z,11.94
2019-05-18T03:15:12.635Z,11.94
2019-05-18T03:17:47.278Z,11.98
2019-05-18T03:20:21.902Z,12.09
2019-05-18T03:22:56.097Z,12.08
2019-05-18T03:25:30.648Z,12.14
2019-05-18T03:28:05.114Z,12.14
2019-05-18T03:30:39.691Z,12.19
2019-05-18T03:33:14.276Z,12.19
2019-05-18T03:35:48.944Z,12.17
2019-05-18T03:38:21.856Z,12.16
2019-05-18T03:40:55.951Z,12.15
2019-05-18T03:43:30.288Z,12.18
2019-05-18T03:46:04.946Z,12.18
2019-05-18T03:48:39.651Z,12.20
2019-05-18T03:51:14.123Z,12.18
2019-05-18T03:53:48.726Z,12.15
2019-05-18T03:56:24.267Z,12.03
2019-05-18T03:58:58.710Z,11.99
2019-05-18T04:01:33.276Z,12.00
2019-05-18T04:04:07.706Z,11.93
2019-05-18T04:06:42.263Z,11.95
2019-05-18T04:09:16.941Z,11.98
2019-05-18T04:11:50.009Z,11.91
2019-05-18T04:14:22.730Z,11.93
2019-05-18T04:16:59.125Z,11.96
2019-05-18T04:19:45.678Z,12.05
2019-05-18T04:22:10.116Z,12.04
2019-05-18T04:24:44.870Z,11.99
2019-05-18T04:27:19.283Z,12.07
2019-05-18T04:29:54.117Z,12.10
2019-05-18T04:32:28.700Z,12.18
2019-05-18T04:35:03.262Z,12.18
2019-05-18T04:37:37.938Z,12.18
2019-05-18T04:40:12.693Z,12.21
2019-05-18T04:42:47.245Z,12.14
2019-05-18T04:45:22.127Z,12.14
2019-05-18T04:47:56.711Z,12.25
2019-05-18T04:50:31.277Z,12.31
2019-05-18T04:53:05.709Z,12.34
2019-05-18T04:55:38.797Z,12.41
2019-05-18T04:58:13.216Z,12.43
2019-05-18T05:00:47.887Z,12.46
2019-05-18T05:03:22.294Z,12.47
2019-05-18T05:05:56.733Z,12.55
2019-05-18T05:08:31.275Z,12.60
2019-05-18T05:11:05.938Z,12.60
2019-05-18T05:13:41.141Z,12.58
2019-05-18T05:16:15.875Z,12.64
2019-05-18T05:18:48.861Z,12.64
2019-05-18T05:21:23.224Z,12.79
2019-05-18T05:23:57.933Z,12.79
2019-05-18T05:26:32.295Z,12.78
2019-05-18T05:29:06.955Z,12.87
2019-05-18T05:31:41.734Z,12.87
2019-05-18T05:34:16.305Z,13.02
2019-05-18T05:36:50.786Z,13.07
2019-05-18T05:39:25.304Z,13.23
2019-05-18T05:41:59.896Z,13.28
2019-05-18T05:44:34.660Z,13.50
2019-05-18T05:47:07.808Z,13.50
2019-05-18T05:49:42.253Z,13.69
2019-05-18T05:52:16.884Z,13.69
2019-05-18T05:54:50.281Z,13.77
2019-05-18T05:57:24.710Z,13.80
2019-05-18T05:59:59.286Z,13.85
2019-05-18T06:02:33.958Z,13.85
2019-05-18T06:05:08.946Z,13.98
2019-05-18T06:07:43.279Z,13.98
2019-05-18T06:10:17.681Z,13.99
2019-05-18T06:12:52.322Z,13.99
2019-05-18T06:15:26.914Z,14.12
2019-05-18T06:18:01.310Z,14.40
2019-05-18T06:20:50.123Z,14.54
2019-05-18T06:23:12.293Z,14.65
2019-05-18T06:25:46.791Z,14.84
2019-05-18T06:28:21.261Z,15.14
2019-05-18T06:30:55.923Z,15.15
2019-05-18T06:33:29.023Z,15.21
2019-05-18T06:36:03.676Z,15.27
2019-05-18T06:38:36.803Z,15.27
2019-05-18T06:41:11.108Z,15.37
2019-05-18T06:43:45.730Z,15.70
2019-05-18T06:46:18.700Z,15.70
2019-05-18T06:48:53.234Z,15.73
2019-05-18T06:51:27.758Z,15.67
2019-05-18T06:54:02.279Z,15.66
2019-05-18T06:56:37.709Z,15.68
2019-05-18T06:59:12.717Z,15.84
2019-05-18T07:01:45.858Z,16.04
2019-05-18T07:04:20.336Z,16.32
2019-05-18T07:06:54.955Z,16.62
2019-05-18T07:09:29.320Z,16.73
2019-05-18T07:12:03.956Z,16.99
2019-05-18T07:14:38.790Z,17.25
2019-05-18T07:17:13.269Z,17.25
2019-05-18T07:19:47.764Z,17.53
2019-05-18T07:22:21.801Z,17.75
2019-05-18T07:24:56.073Z,17.98
2019-05-18T07:27:30.709Z,18.28
2019-05-18T07:30:04.123Z,18.26
2019-05-18T07:32:38.663Z,18.25
2019-05-18T07:35:13.542Z,18.25
2019-05-18T07:37:48.277Z,18.33
2019-05-18T07:40:22.789Z,18.49
2019-05-18T07:42:55.817Z,18.57
2019-05-18T07:45:30.287Z,18.85
2019-05-18T07:48:04.938Z,19.09
2019-05-18T07:50:39.313Z,19.66
2019-05-18T07:53:13.938Z,19.66
2019-05-18T07:56:03.693Z,20.07
2019-05-18T07:58:38.279Z,20.07
2019-05-18T08:01:12.898Z,20.61
2019-05-18T08:03:45.866Z,20.61
2019-05-18T08:06:20.136Z,21.07
2019-05-18T08:08:54.801Z,21.07
2019-05-18T08:11:28.892Z,20.93
2019-05-18T08:14:03.118Z,21.00
2019-05-18T08:16:37.737Z,21.02
2019-05-18T08:19:12.255Z,21.40
2019-05-18T08:21:53.157Z,22.09
2019-05-18T08:24:23.301Z,22.09
2019-05-18T08:26:58.040Z,22.38
2019-05-18T08:29:32.676Z,22.37
2019-05-18T08:32:07.278Z,22.37
2019-05-18T08:34:41.748Z,22.63
2019-05-18T08:37:14.868Z,22.88
2019-05-18T08:39:49.283Z,23.50
2019-05-18T08:42:24.100Z,23.91
2019-05-18T08:44:58.866Z,24.75
2019-05-18T08:47:33.285Z,24.75
2019-05-18T08:50:08.427Z,25.60
2019-05-18T08:52:43.141Z,25.48
2019-05-18T08:55:19.346Z,26.40
2019-05-18T08:57:54.455Z,26.40
2019-05-18T09:00:29.297Z,26.91
2019-05-18T09:03:04.245Z,27.04
2019-05-18T09:05:38.888Z,27.29
2019-05-18T09:08:12.040Z,27.42
2019-05-18T09:10:46.272Z,27.80
2019-05-18T09:13:20.719Z,28.04
2019-05-18T09:15:55.243Z,27.77
2019-05-18T09:18:29.764Z,27.48
2019-05-18T09:21:02.797Z,27.48
2019-05-18T09:23:35.878Z,27.65
2019-05-18T09:26:08.848Z,27.65
2019-05-18T09:28:41.721Z,27.96
2019-05-18T09:31:16.279Z,28.16
2019-05-18T09:33:50.975Z,28.18
2019-05-18T09:36:25.656Z,28.31
2019-05-18T09:39:02.110Z,28.31
2019-05-18T09:41:41.950Z,28.44
2019-05-18T09:44:16.340Z,28.44
2019-05-18T09:46:52.291Z,28.85
2019-05-18T09:49:26.885Z,28.87
2019-05-18T09:52:01.703Z,29.30
2019-05-18T09:54:34.916Z,29.30
2019-05-18T09:57:09.292Z,29.22
2019-05-18T09:59:43.869Z,29.26
2019-05-18T10:02:18.353Z,29.34
2019-05-18T10:04:52.936Z,29.43
2019-05-18T10:07:27.715Z,29.96
2019-05-18T10:10:00.866Z,29.96
2019-05-18T10:12:35.311Z,29.82
2019-05-18T10:15:10.359Z,30.02
2019-05-18T10:17:45.000Z,30.06
2019-05-18T10:20:20.289Z,30.06
2019-05-18T10:23:11.371Z,30.05
2019-05-18T10:25:31.079Z,30.12
2019-05-18T10:28:05.319Z,29.92
2019-05-18T10:30:39.951Z,29.92
2019-05-18T10:33:14.324Z,30.49
2019-05-18T10:35:48.885Z,30.49
2019-05-18T10:38:23.267Z,30.42
2019-05-18T10:40:57.740Z,30.65
2019-05-18T10:43:30.714Z,30.62
2019-05-18T10:46:05.621Z,30.85
2019-05-18T10:48:39.294Z,30.79
2019-05-18T10:51:13.974Z,30.96
2019-05-18T10:53:49.079Z,31.37
2019-05-18T10:56:25.292Z,31.37
2019-05-18T10:58:59.937Z,31.29
2019-05-18T11:01:33.109Z,31.11
2019-05-18T11:04:07.684Z,31.46
2019-05-18T11:06:40.786Z,31.46
2019-05-18T11:09:15.283Z,31.97
2019-05-18T11:11:49.880Z,32.37
2019-05-18T11:14:24.329Z,32.56
2019-05-18T11:16:59.287Z,32.78
2019-05-18T11:19:33.898Z,32.68
2019-05-18T11:22:08.272Z,32.93
2019-05-18T11:24:42.654Z,33.65
2019-05-18T11:27:17.099Z,34.16
2019-05-18T11:29:51.538Z,33.92
2019-05-18T11:32:25.942Z,33.92
2019-05-18T11:35:00.321Z,33.58
2019-05-18T11:37:34.763Z,33.61
2019-05-18T11:40:07.910Z,33.83
2019-05-18T11:42:40.708Z,34.04
2019-05-18T11:45:16.281Z,33.86
2019-05-18T11:47:51.751Z,34.13
2019-05-18T11:50:27.361Z,34.54
2019-05-18T11:53:02.351Z,34.54
2019-05-18T11:55:37.785Z,34.39
2019-05-18T11:58:12.134Z,34.44
2019-05-18T12:00:47.916Z,34.52
2019-05-18T12:03:22.445Z,34.52
2019-05-18T12:05:56.877Z,34.52
2019-05-18T12:08:31.263Z,35.00
2019-05-18T12:11:05.732Z,34.33
2019-05-18T12:13:40.026Z,34.33
2019-05-18T12:16:17.333Z,35.06
2019-05-18T12:18:50.916Z,35.15
2019-05-18T12:21:25.564Z,35.15
2019-05-18T12:24:14.106Z,35.56
2019-05-18T12:26:34.891Z,35.28
2019-05-18T12:29:07.869Z,35.28
2019-05-18T12:31:41.947Z,35.74
2019-05-18T12:34:16.608Z,36.00
2019-05-18T12:36:51.283Z,36.32
2019-05-18T12:39:25.703Z,36.93
2019-05-18T12:42:00.112Z,36.51
2019-05-18T12:44:34.662Z,36.74
2019-05-18T12:47:07.707Z,36.74
2019-05-18T12:49:41.942Z,36.09
2019-05-18T12:52:16.286Z,36.31
2019-05-18T12:54:50.948Z,36.48
2019-05-18T12:57:25.334Z,36.85
2019-05-18T12:59:59.750Z,37.58
2019-05-18T13:02:34.249Z,37.42
2019-05-18T13:05:09.257Z,37.66
2019-05-18T13:07:43.726Z,37.56
2019-05-18T13:10:20.119Z,37.50
2019-05-18T13:12:54.582Z,36.88
2019-05-18T13:15:28.901Z,36.88
2019-05-18T13:18:03.166Z,37.39
2019-05-18T13:20:37.684Z,37.56
2019-05-18T13:23:12.264Z,37.57
2019-05-18T13:25:46.681Z,37.66
2019-05-18T13:28:19.687Z,37.26
2019-05-18T13:30:54.100Z,38.00
2019-05-18T13:33:28.345Z,37.90
2019-05-18T13:36:02.909Z,37.90
2019-05-18T13:38:37.343Z,37.83
2019-05-18T13:41:11.761Z,38.29
2019-05-18T13:43:44.919Z,38.69
2019-05-18T13:46:17.684Z,38.04
2019-05-18T13:48:51.940Z,38.04
2019-05-18T13:51:26.271Z,38.33
2019-05-18T13:54:00.685Z,38.76
2019-05-18T13:56:33.685Z,38.92
2019-05-18T13:59:07.893Z,39.14
2019-05-18T14:01:42.332Z,38.88
2019-05-18T14:04:16.789Z,38.46
2019-05-18T14:06:49.706Z,37.95
2019-05-18T14:09:23.940Z,37.29
2019-05-18T14:11:58.287Z,36.68
2019-05-18T14:14:32.794Z,36.90
2019-05-18T14:17:07.276Z,37.15
2019-05-18T14:19:41.726Z,36.96
2019-05-18T14:22:14.687Z,36.40
2019-05-18T14:24:48.946Z,36.28
2019-05-18T14:27:23.279Z,36.67
2019-05-18T14:29:57.709Z,36.12
2019-05-18T14:32:30.860Z,36.20
2019-05-18T14:35:03.689Z,36.22
2019-05-18T14:37:38.087Z,36.16
2019-05-18T14:40:13.717Z,36.31
2019-05-18T14:42:46.690Z,36.38
2019-05-18T14:45:21.877Z,36.38
2019-05-18T14:47:56.127Z,35.91
2019-05-18T14:50:30.660Z,35.82
2019-05-18T14:53:04.935Z,35.49
2019-05-18T14:55:39.252Z,35.22
2019-05-18T14:58:13.729Z,34.98
2019-05-18T15:00:46.848Z,34.39
2019-05-18T15:03:21.112Z,33.85
2019-05-18T15:05:55.321Z,32.77
2019-05-18T15:08:29.940Z,32.77
2019-05-18T15:11:04.323Z,31.89
2019-05-18T15:13:38.856Z,31.12
2019-05-18T15:16:13.267Z,30.33
2019-05-18T15:18:47.719Z,29.95
2019-05-18T15:21:20.810Z,29.21
2019-05-18T15:23:53.641Z,28.59
2019-05-18T15:26:27.948Z,28.13
2019-05-18T15:29:02.281Z,27.12
2019-05-18T15:31:36.683Z,27.12
2019-05-18T15:34:11.244Z,26.80
2019-05-18T15:36:45.717Z,26.29
2019-05-18T15:39:20.117Z,25.96
2019-05-18T15:41:54.731Z,25.50
2019-05-18T15:44:27.852Z,25.29
2019-05-18T15:47:03.735Z,25.05
2019-05-18T15:49:36.872Z,24.83
2019-05-18T15:52:09.712Z,24.69
2019-05-18T15:54:44.964Z,24.66
2019-05-18T15:57:19.676Z,24.54
2019-05-18T15:59:54.676Z,24.54
2019-05-18T16:02:28.925Z,24.48
2019-05-18T16:05:03.335Z,24.42
2019-05-18T16:07:37.747Z,24.42
2019-05-18T16:10:13.104Z,24.34
2019-05-18T16:12:48.697Z,24.32
2019-05-18T16:15:21.855Z,24.25
2019-05-18T16:18:02.639Z,24.08
2019-05-18T16:20:37.126Z,23.92
2019-05-18T16:23:13.910Z,23.89
2019-05-18T16:25:48.700Z,23.89
2019-05-18T16:28:24.291Z,23.87
2019-05-18T16:31:01.294Z,23.65
2019-05-18T16:33:41.121Z,23.53
2019-05-18T16:36:15.669Z,23.53
2019-05-18T16:38:51.079Z,23.49
2019-05-18T16:41:25.675Z,23.45
2019-05-18T16:44:06.049Z,23.44
2019-05-18T16:46:43.292Z,23.40
2019-05-18T16:49:18.950Z,23.39
2019-05-18T16:51:55.442Z,23.37
2019-05-18T16:54:30.140Z,23.38
2019-05-18T16:58:29.292Z,23.37
2019-05-18T17:01:03.741Z,23.37
2019-05-18T17:03:38.291Z,23.37
2019-05-18T17:06:16.168Z,23.31
2019-05-18T17:08:49.131Z,23.23
2019-05-18T17:11:23.714Z,23.22
2019-05-18T17:13:56.839Z,23.13
2019-05-18T17:16:31.221Z,23.12
2019-05-18T17:19:05.701Z,22.97
2019-05-18T17:21:38.717Z,22.97
2019-05-18T17:24:13.107Z,23.00
2019-05-18T17:26:52.849Z,22.93
2019-05-18T17:29:24.134Z,22.86
2019-05-18T17:31:58.734Z,22.86
2019-05-18T17:34:33.990Z,22.83
2019-05-18T17:37:08.927Z,22.74
2019-05-18T17:39:43.404Z,22.74
2019-05-18T17:42:18.348Z,22.62
2019-05-18T17:44:53.290Z,22.62
2019-05-18T17:47:29.600Z,22.59
2019-05-18T17:50:04.313Z,22.58
2019-05-18T17:52:39.130Z,22.46
2019-05-18T17:55:16.481Z,22.44
2019-05-18T17:57:50.086Z,22.37
2019-05-18T18:00:25.136Z,22.28
2019-05-18T18:02:59.799Z,22.28
2019-05-18T18:05:34.060Z,22.21
2019-05-18T18:08:08.350Z,22.17
2019-05-18T18:10:44.020Z,22.16
2019-05-18T18:13:18.761Z,21.90
2019-05-18T18:15:52.039Z,21.90
2019-05-18T18:18:26.294Z,21.97
2019-05-18T18:21:02.139Z,21.91
2019-05-18T18:23:36.983Z,21.85
2019-05-18T18:26:11.675Z,21.76
2019-05-18T18:28:44.829Z,21.60
2019-05-18T18:31:19.124Z,21.69
2019-05-18T18:33:53.743Z,21.69
2019-05-18T18:36:26.877Z,21.72
2019-05-18T18:38:59.841Z,21.73
2019-05-18T18:41:34.106Z,21.61
2019-05-18T18:44:08.601Z,21.40
2019-05-18T18:46:42.980Z,21.40
2019-05-18T18:49:17.686Z,21.26
2019-05-18T18:51:52.089Z,21.17
2019-05-18T18:54:26.339Z,21.10
2019-05-18T18:57:00.809Z,21.10
2019-05-18T18:59:33.795Z,21.04
2019-05-18T19:02:07.950Z,20.92
2019-05-18T19:04:42.338Z,20.88
2019-05-18T19:07:16.727Z,20.82
2019-05-18T19:09:50.285Z,20.76
2019-05-18T19:12:24.535Z,20.67
2019-05-18T19:14:58.993Z,20.67
2019-05-18T19:17:33.318Z,20.61
2019-05-18T19:20:08.349Z,20.61
2019-05-18T19:22:42.754Z,20.56
2019-05-18T19:25:17.277Z,20.46
2019-05-18T19:27:54.963Z,20.46
2019-05-18T19:30:29.895Z,20.22
2019-05-18T19:33:04.493Z,20.16
2019-05-18T19:35:39.284Z,20.16
2019-05-18T19:38:14.136Z,20.12
2019-05-18T19:40:50.600Z,19.91
2019-05-18T19:43:25.362Z,19.91
2019-05-18T19:46:00.341Z,19.86
2019-05-18T19:48:34.810Z,19.66
2019-05-18T19:51:10.586Z,19.66
2019-05-18T19:53:45.286Z,19.53
2019-05-18T19:56:19.691Z,19.53
2019-05-18T19:58:53.985Z,19.45
2019-05-18T20:01:29.322Z,19.29
2019-05-18T20:04:03.928Z,19.29
2019-05-18T20:06:38.297Z,19.35
2019-05-18T20:09:12.781Z,19.26
2019-05-18T20:11:45.870Z,19.24
2019-05-18T20:14:18.660Z,19.24
2019-05-18T20:16:53.194Z,19.23
2019-05-18T20:19:38.802Z,19.23
2019-05-18T20:22:03.907Z,19.21
2019-05-18T20:24:38.262Z,19.17
2019-05-18T20:27:13.909Z,19.19
2019-05-18T20:29:48.299Z,19.11
2019-05-18T20:32:22.717Z,19.11
2019-05-18T20:34:57.105Z,19.04
2019-05-18T20:37:31.684Z,18.98
2019-05-18T20:40:04.875Z,18.99
2019-05-18T20:42:37.995Z,19.05
2019-05-18T20:45:13.298Z,19.06
2019-05-18T20:47:47.794Z,19.13
2019-05-18T20:50:21.040Z,19.16
2019-05-18T20:52:55.296Z,19.13
2019-05-18T20:55:29.698Z,19.05
2019-05-18T20:58:02.714Z,18.94
2019-05-18T21:00:38.676Z,18.90
2019-05-18T21:03:13.127Z,18.90
2019-05-18T21:05:48.502Z,18.91
2019-05-18T21:08:23.327Z,18.94
2019-05-18T21:10:57.904Z,18.90
2019-05-18T21:13:33.361Z,18.88
2019-05-18T21:16:08.123Z,18.88
2019-05-18T21:18:43.501Z,18.79
2019-05-18T21:21:18.289Z,18.76
2019-05-18T21:23:52.857Z,18.72
2019-05-18T21:26:27.393Z,18.70
2019-05-18T21:29:02.292Z,18.62
2019-05-18T21:31:37.287Z,18.61
2019-05-18T21:34:11.949Z,18.64
2019-05-18T21:36:46.302Z,18.60
2019-05-18T21:39:21.288Z,18.58
2019-05-18T21:41:56.275Z,18.57
2019-05-18T21:44:31.310Z,18.59
2019-05-18T21:47:05.874Z,18.60
2019-05-18T21:49:39.076Z,18.55
2019-05-18T21:52:14.377Z,18.53
2019-05-18T21:54:49.140Z,18.46
2019-05-18T21:57:23.770Z,18.50
2019-05-18T21:59:56.804Z,18.50
2019-05-18T22:02:30.021Z,18.45
2019-05-18T22:05:04.326Z,18.43
2019-05-18T22:07:38.955Z,18.48
2019-05-18T22:10:25.373Z,18.55
2019-05-18T22:12:49.876Z,18.57
2019-05-18T22:15:24.317Z,18.55
2019-05-18T22:18:04.765Z,18.55
2019-05-18T22:20:43.622Z,18.55
2019-05-18T22:23:15.311Z,18.57
2019-05-18T22:25:50.093Z,18.55
2019-05-18T22:28:24.475Z,18.70
2019-05-18T22:30:58.962Z,18.70
2019-05-18T22:33:33.263Z,18.76
2019-05-18T22:36:07.957Z,18.72
2019-05-18T22:38:42.650Z,18.70
2019-05-18T22:41:17.312Z,18.70
2019-05-18T22:43:51.952Z,18.61
2019-05-18T22:46:26.337Z,18.46
2019-05-18T22:49:00.989Z,18.36
2019-05-18T22:51:37.594Z,18.39
2019-05-18T22:54:13.034Z,18.45
2019-05-18T22:56:47.940Z,18.51
2019-05-18T22:59:22.741Z,18.43
2019-05-18T23:01:57.282Z,18.43
2019-05-18T23:04:31.905Z,18.45
2019-05-18T23:07:05.046Z,18.44
2019-05-18T23:09:39.378Z,18.35
2019-05-18T23:12:13.947Z,18.35
2019-05-18T23:14:48.284Z,18.27
2019-05-18T23:17:23.312Z,18.23
2019-05-18T23:19:57.939Z,18.20
2019-05-18T23:22:32.449Z,18.12
2019-05-18T23:25:07.562Z,18.08
2019-05-18T23:27:42.147Z,18.00
2019-05-18T23:30:17.289Z,17.94
2019-05-18T23:32:51.810Z,17.94
2019-05-18T23:35:25.319Z,17.92
2019-05-18T23:37:59.737Z,17.94
2019-05-18T23:40:32.710Z,17.87
2019-05-18T23:43:06.993Z,17.83
2019-05-18T23:45:41.354Z,17.79
2019-05-18T23:48:15.884Z,17.73
2019-05-18T23:50:50.283Z,17.69
2019-05-18T23:53:25.233Z,17.68
2019-05-18T23:55:59.945Z,17.68
2019-05-18T23:58:34.813Z,17.64
